Mileston, Mississippi
Current Conditions -  °F | °C
As of 7:53 AM on Thursday 18 Dec 2014 (Local Time) from KGWO Reporting Station
Light Rain Light Rain  
Wind Chill: 39°   Ceiling: 6000
Heat Index: 42°   Visibility: 5mi
Dew Point: 42°   Wind: 5mph
Humidity: 100%   Direction: 40°NE
Pressure: 30.24"   Gusts: NA
Location:  33.1467°N, 90.274°W
Report Text: KGWO 181353Z AUTO 04004KT 5SM -RA BR OVC060 06/06 A3024 RMK AO2 RAB27 SLP241 P0002 T00560056
Loading
Personal Weather Stations






























Interactive Weather Map New forecast layout! Learn more

10-Day Weather Forecast

Advertisements
Track Severe Weather on mobile